sensor_id;sensor_type;location;lat;lon;timestamp;pressure;altitude;pressure_sealevel;temperature;humidity
73297;BME280;61524;50.938;11.396;2022-08-07T00:00:33;100078.47;;;7.88;76.96
73297;BME280;61524;50.938;11.396;2022-08-07T00:02:59;100088.69;;;7.78;77.89
73297;BME280;61524;50.938;11.396;2022-08-07T00:05:25;100094.59;;;7.67;78.62
73297;BME280;61524;50.938;11.396;2022-08-07T00:07:52;100065.72;;;7.50;78.38
73297;BME280;61524;50.938;11.396;2022-08-07T00:10:19;100083.72;;;7.48;79.41
73297;BME280;61524;50.938;11.396;2022-08-07T00:12:44;100070.22;;;7.50;80.01
73297;BME280;61524;50.938;11.396;2022-08-07T00:15:10;100076.75;;;7.47;80.19
73297;BME280;61524;50.938;11.396;2022-08-07T00:17:36;100081.47;;;7.58;79.24
73297;BME280;61524;50.938;11.396;2022-08-07T00:20:03;100082.63;;;7.36;79.24
73297;BME280;61524;50.938;11.396;2022-08-07T00:22:28;100066.06;;;7.27;79.88
73297;BME280;61524;50.938;11.396;2022-08-07T00:24:54;100069.78;;;7.40;79.16
73297;BME280;61524;50.938;11.396;2022-08-07T00:27:19;100074.88;;;7.41;80.01
73297;BME280;61524;50.938;11.396;2022-08-07T00:29:45;100069.72;;;7.26;80.77
73297;BME280;61524;50.938;11.396;2022-08-07T00:32:10;100068.53;;;7.29;80.45
73297;BME280;61524;50.938;11.396;2022-08-07T00:34:38;100056.03;;;7.29;80.49
73297;BME280;61524;50.938;11.396;2022-08-07T00:37:04;100056.03;;;7.16;80.82
73297;BME280;61524;50.938;11.396;2022-08-07T00:39:29;100040.47;;;7.13;80.93
73297;BME280;61524;50.938;11.396;2022-08-07T00:41:56;100053.72;;;7.06;81.06
73297;BME280;61524;50.938;11.396;2022-08-07T00:44:23;100044.97;;;7.13;80.86
73297;BME280;61524;50.938;11.396;2022-08-07T00:46:49;100049.47;;;7.19;80.58
73297;BME280;61524;50.938;11.396;2022-08-07T00:49:15;100048.88;;;7.17;80.54
73297;BME280;61524;50.938;11.396;2022-08-07T00:51:41;100061.69;;;7.06;80.93
73297;BME280;61524;50.938;11.396;2022-08-07T00:54:08;100052.91;;;7.06;80.83
73297;BME280;61524;50.938;11.396;2022-08-07T00:56:34;100058.41;;;7.04;80.38
73297;BME280;61524;50.938;11.396;2022-08-07T00:59:01;100047.38;;;7.07;80.96
73297;BME280;61524;50.938;11.396;2022-08-07T01:01:27;100054.75;;;7.05;80.51
73297;BME280;61524;50.938;11.396;2022-08-07T01:03:53;100052.47;;;7.02;80.18
73297;BME280;61524;50.938;11.396;2022-08-07T01:06:18;100044.72;;;7.01;79.89
73297;BME280;61524;50.938;11.396;2022-08-07T01:08:45;100041.41;;;6.99;80.51
73297;BME280;61524;50.938;11.396;2022-08-07T01:11:14;100057.13;;;6.94;80.58
73297;BME280;61524;50.938;11.396;2022-08-07T01:13:40;100043.03;;;6.93;80.93
73297;BME280;61524;50.938;11.396;2022-08-07T01:16:07;100044.22;;;6.84;81.02
73297;BME280;61524;50.938;11.396;2022-08-07T01:18:34;100049.91;;;6.74;81.23
73297;BME280;61524;50.938;11.396;2022-08-07T01:21:13;100046.66;;;6.79;81.83
73297;BME280;61524;50.938;11.396;2022-08-07T01:23:43;100038.03;;;6.70;81.03
73297;BME280;61524;50.938;11.396;2022-08-07T01:26:10;100040.66;;;6.64;81.56
73297;BME280;61524;50.938;11.396;2022-08-07T01:28:38;100046.97;;;6.63;81.79
73297;BME280;61524;50.938;11.396;2022-08-07T01:31:04;100044.50;;;6.61;82.12
73297;BME280;61524;50.938;11.396;2022-08-07T01:33:31;100039.63;;;6.65;82.39
73297;BME280;61524;50.938;11.396;2022-08-07T01:35:57;100042.25;;;6.58;82.86
73297;BME280;61524;50.938;11.396;2022-08-07T01:38:25;100049.16;;;6.52;82.96
73297;BME280;61524;50.938;11.396;2022-08-07T01:40:53;100047.72;;;6.50;82.76
73297;BME280;61524;50.938;11.396;2022-08-07T01:43:19;100041.53;;;6.43;82.54
73297;BME280;61524;50.938;11.396;2022-08-07T01:45:44;100051.72;;;6.39;83.23
73297;BME280;61524;50.938;11.396;2022-08-07T01:48:10;100053.34;;;6.40;83.16
73297;BME280;61524;50.938;11.396;2022-08-07T01:50:36;100053.75;;;6.37;83.25
73297;BME280;61524;50.938;11.396;2022-08-07T01:53:04;100055.19;;;6.40;82.85
73297;BME280;61524;50.938;11.396;2022-08-07T01:55:37;100047.22;;;6.40;83.17
73297;BME280;61524;50.938;11.396;2022-08-07T01:58:07;100052.97;;;6.43;82.50
73297;BME280;61524;50.938;11.396;2022-08-07T02:00:35;100043.16;;;6.37;82.96
73297;BME280;61524;50.938;11.396;2022-08-07T02:03:07;100031.47;;;6.31;83.59
73297;BME280;61524;50.938;11.396;2022-08-07T02:05:40;100042.56;;;6.42;82.93
73297;BME280;61524;50.938;11.396;2022-08-07T02:08:08;100045.63;;;6.45;82.77
73297;BME280;61524;50.938;11.396;2022-08-07T02:10:35;100042.56;;;6.42;83.19
73297;BME280;61524;50.938;11.396;2022-08-07T02:13:02;100049.66;;;6.35;83.25
73297;BME280;61524;50.938;11.396;2022-08-07T02:15:29;100048.75;;;6.21;82.28
73297;BME280;61524;50.938;11.396;2022-08-07T02:17:56;100040.34;;;6.17;82.71
73297;BME280;61524;50.938;11.396;2022-08-07T02:20:24;100038.13;;;6.21;83.02
73297;BME280;61524;50.938;11.396;2022-08-07T02:22:52;100043.94;;;6.31;83.05
73297;BME280;61524;50.938;11.396;2022-08-07T02:25:22;100054.44;;;6.18;84.08
73297;BME280;61524;50.938;11.396;2022-08-07T02:27:49;100037.69;;;6.17;83.65
73297;BME280;61524;50.938;11.396;2022-08-07T02:30:16;100036.84;;;6.10;83.82
73297;BME280;61524;50.938;11.396;2022-08-07T02:32:42;100037.97;;;6.01;84.86
73297;BME280;61524;50.938;11.396;2022-08-07T02:35:09;100029.16;;;5.94;85.02
73297;BME280;61524;50.938;11.396;2022-08-07T02:37:38;100022.84;;;5.95;84.79
73297;BME280;61524;50.938;11.396;2022-08-07T02:40:06;100032.06;;;5.99;84.58
73297;BME280;61524;50.938;11.396;2022-08-07T02:42:33;100026.56;;;6.00;85.13
73297;BME280;61524;50.938;11.396;2022-08-07T02:45:00;100029.41;;;5.99;85.01
73297;BME280;61524;50.938;11.396;2022-08-07T02:47:27;100026.56;;;6.00;85.12
73297;BME280;61524;50.938;11.396;2022-08-07T02:49:52;100034.06;;;5.97;85.55
73297;BME280;61524;50.938;11.396;2022-08-07T02:52:22;100028.75;;;5.97;85.09
73297;BME280;61524;50.938;11.396;2022-08-07T02:54:52;100025.84;;;5.92;84.51
73297;BME280;61524;50.938;11.396;2022-08-07T02:57:19;100020.19;;;5.95;84.53
73297;BME280;61524;50.938;11.396;2022-08-07T02:59:49;100021.69;;;5.83;84.88
73297;BME280;61524;50.938;11.396;2022-08-07T03:02:16;100016.81;;;5.86;84.87
73297;BME280;61524;50.938;11.396;2022-08-07T03:04:44;100017.53;;;5.73;85.33
73297;BME280;61524;50.938;11.396;2022-08-07T03:07:11;100022.63;;;5.75;85.25
73297;BME280;61524;50.938;11.396;2022-08-07T03:09:37;100027.69;;;5.70;85.73
73297;BME280;61524;50.938;11.396;2022-08-07T03:12:04;100028.34;;;5.72;85.27
73297;BME280;61524;50.938;11.396;2022-08-07T03:14:32;100025.03;;;5.70;85.14
73297;BME280;61524;50.938;11.396;2022-08-07T03:16:58;100029.50;;;5.69;85.38
73297;BME280;61524;50.938;11.396;2022-08-07T03:19:24;100021.00;;;5.74;85.18
73297;BME280;61524;50.938;11.396;2022-08-07T03:21:51;100015.69;;;5.74;85.29
73297;BME280;61524;50.938;11.396;2022-08-07T03:24:16;100018.63;;;5.86;84.58
73297;BME280;61524;50.938;11.396;2022-08-07T03:26:44;100004.88;;;5.75;84.74
73297;BME280;61524;50.938;11.396;2022-08-07T03:29:11;99995.81;;;5.63;84.50
73297;BME280;61524;50.938;11.396;2022-08-07T03:31:39;100005.50;;;5.71;84.44
73297;BME280;61524;50.938;11.396;2022-08-07T03:34:08;100006.00;;;5.60;85.50
73297;BME280;61524;50.938;11.396;2022-08-07T03:36:36;100007.94;;;5.51;84.68
73297;BME280;61524;50.938;11.396;2022-08-07T03:39:07;100003.78;;;5.42;85.33
73297;BME280;61524;50.938;11.396;2022-08-07T03:41:34;100010.09;;;5.41;85.22
73297;BME280;61524;50.938;11.396;2022-08-07T03:44:00;100003.16;;;5.40;85.70
73297;BME280;61524;50.938;11.396;2022-08-07T03:46:26;100005.81;;;5.40;85.99
73297;BME280;61524;50.938;11.396;2022-08-07T03:48:53;99999.50;;;5.41;85.99
73297;BME280;61524;50.938;11.396;2022-08-07T03:51:20;99994.81;;;5.43;85.31
73297;BME280;61524;50.938;11.396;2022-08-07T03:53:46;100000.13;;;5.43;86.30
73297;BME280;61524;50.938;11.396;2022-08-07T03:56:15;99999.84;;;5.38;86.04
73297;BME280;61524;50.938;11.396;2022-08-07T03:58:41;100001.44;;;5.32;87.00
73297;BME280;61524;50.938;11.396;2022-08-07T04:01:10;100000.69;;;5.38;86.22
73297;BME280;61524;50.938;11.396;2022-08-07T04:03:38;100003.16;;;5.40;86.56
73297;BME280;61524;50.938;11.396;2022-08-07T04:06:07;100008.16;;;5.49;85.77
73297;BME280;61524;50.938;11.396;2022-08-07T04:08:33;100002.41;;;5.46;86.05
73297;BME280;61524;50.938;11.396;2022-08-07T04:10:59;100030.66;;;5.39;85.69
73297;BME280;61524;50.938;11.396;2022-08-07T04:13:25;99999.03;;;5.37;86.22
73297;BME280;61524;50.938;11.396;2022-08-07T04:15:51;100012.53;;;5.42;85.77
73297;BME280;61524;50.938;11.396;2022-08-07T04:18:16;100017.03;;;5.42;86.70
73297;BME280;61524;50.938;11.396;2022-08-07T04:20:42;100011.34;;;5.45;86.29
73297;BME280;61524;50.938;11.396;2022-08-07T04:23:08;100018.91;;;5.48;85.90
73297;BME280;61524;50.938;11.396;2022-08-07T04:25:35;100015.03;;;5.44;86.02
73297;BME280;61524;50.938;11.396;2022-08-07T04:28:07;100024.91;;;5.57;85.22
73297;BME280;61524;50.938;11.396;2022-08-07T04:30:34;100015.03;;;5.65;85.01
73297;BME280;61524;50.938;11.396;2022-08-07T04:33:05;100028.69;;;5.69;85.78
73297;BME280;61524;50.938;11.396;2022-08-07T04:35:31;100026.09;;;5.75;85.54
73297;BME280;61524;50.938;11.396;2022-08-07T04:37:56;100033.06;;;5.76;84.69
73297;BME280;61524;50.938;11.396;2022-08-07T04:40:23;100037.56;;;5.76;85.85
73297;BME280;61524;50.938;11.396;2022-08-07T04:42:48;100039.69;;;5.87;85.00
73297;BME280;61524;50.938;11.396;2022-08-07T04:45:14;100038.56;;;5.96;84.86
73297;BME280;61524;50.938;11.396;2022-08-07T04:48:17;100047.88;;;6.14;84.39
73297;BME280;61524;50.938;11.396;2022-08-07T04:50:59;100047.78;;;6.28;84.45
73297;BME280;61524;50.938;11.396;2022-08-07T04:53:33;100057.50;;;6.49;83.24
73297;BME280;61524;50.938;11.396;2022-08-07T04:56:14;100072.81;;;7.30;80.48
73297;BME280;61524;50.938;11.396;2022-08-07T04:58:58;100096.13;;;8.42;76.61
73297;BME280;61524;50.938;11.396;2022-08-07T05:01:39;100112.41;;;8.92;74.70
73297;BME280;61524;50.938;11.396;2022-08-07T05:04:30;100119.00;;;9.41;72.20
73297;BME280;61524;50.938;11.396;2022-08-07T05:07:18;100127.88;;;9.73;71.17
73297;BME280;61524;50.938;11.396;2022-08-07T05:12:24;100134.75;;;10.25;70.14
73297;BME280;61524;50.938;11.396;2022-08-07T05:14:52;100151.81;;;10.74;67.88
73297;BME280;61524;50.938;11.396;2022-08-07T05:17:20;100152.50;;;11.07;67.90
73297;BME280;61524;50.938;11.396;2022-08-07T05:19:48;100155.78;;;11.27;65.89
73297;BME280;61524;50.938;11.396;2022-08-07T05:22:16;100155.75;;;11.45;66.29
73297;BME280;61524;50.938;11.396;2022-08-07T05:24:43;100151.94;;;11.71;66.55
73297;BME280;61524;50.938;11.396;2022-08-07T05:27:12;100162.38;;;12.21;64.99
73297;BME280;61524;50.938;11.396;2022-08-07T05:29:40;100162.34;;;12.09;65.22
73297;BME280;61524;50.938;11.396;2022-08-07T05:32:07;100168.66;;;12.15;66.08
73297;BME280;61524;50.938;11.396;2022-08-07T05:34:39;100166.50;;;12.47;65.14
73297;BME280;61524;50.938;11.396;2022-08-07T05:37:06;100167.81;;;12.80;62.82
73297;BME280;61524;50.938;11.396;2022-08-07T05:39:34;100182.41;;;13.31;60.38
73297;BME280;61524;50.938;11.396;2022-08-07T05:42:01;100175.16;;;13.31;60.56
73297;BME280;61524;50.938;11.396;2022-08-07T05:44:28;100191.06;;;13.73;58.97
73297;BME280;61524;50.938;11.396;2022-08-07T05:46:54;100216.69;;;14.66;55.92
73297;BME280;61524;50.938;11.396;2022-08-07T05:49:21;100208.41;;;14.90;55.19
73297;BME280;61524;50.938;11.396;2022-08-07T05:51:47;100217.25;;;14.85;55.04
73297;BME280;61524;50.938;11.396;2022-08-07T05:54:15;100219.13;;;15.40;53.00
73297;BME280;61524;50.938;11.396;2022-08-07T05:56:41;100214.69;;;15.12;54.10
73297;BME280;61524;50.938;11.396;2022-08-07T05:59:15;100214.91;;;15.49;52.17
73297;BME280;61524;50.938;11.396;2022-08-07T06:01:42;100222.88;;;15.39;52.82
73297;BME280;61524;50.938;11.396;2022-08-07T06:04:10;100224.56;;;15.45;52.46
73297;BME280;61524;50.938;11.396;2022-08-07T06:06:38;100221.66;;;15.69;52.24
73297;BME280;61524;50.938;11.396;2022-08-07T06:09:04;100247.06;;;16.22;50.67
73297;BME280;61524;50.938;11.396;2022-08-07T06:11:32;100218.19;;;15.95;51.59
73297;BME280;61524;50.938;11.396;2022-08-07T06:13:58;100224.25;;;16.08;51.03
73297;BME280;61524;50.938;11.396;2022-08-07T06:16:26;100232.28;;;16.57;50.39
73297;BME280;61524;50.938;11.396;2022-08-07T06:18:55;100242.19;;;16.78;50.96
73297;BME280;61524;50.938;11.396;2022-08-07T06:21:22;100248.75;;;16.87;50.20
73297;BME280;61524;50.938;11.396;2022-08-07T06:23:47;100256.72;;;17.46;49.74
73297;BME280;61524;50.938;11.396;2022-08-07T06:26:13;100238.28;;;16.91;49.66
73297;BME280;61524;50.938;11.396;2022-08-07T06:28:49;100248.66;;;17.56;49.43
73297;BME280;61524;50.938;11.396;2022-08-07T06:31:14;100253.19;;;17.93;48.07
73297;BME280;61524;50.938;11.396;2022-08-07T06:33:40;100241.75;;;17.81;47.04
73297;BME280;61524;50.938;11.396;2022-08-07T06:36:06;100241.25;;;17.89;48.64
73297;BME280;61524;50.938;11.396;2022-08-07T06:38:32;100238.06;;;17.97;47.51
73297;BME280;61524;50.938;11.396;2022-08-07T06:40:58;100247.25;;;18.01;46.74
73297;BME280;61524;50.938;11.396;2022-08-07T06:43:25;100235.06;;;17.94;47.05
73297;BME280;61524;50.938;11.396;2022-08-07T06:45:52;100226.88;;;17.73;47.67
73297;BME280;61524;50.938;11.396;2022-08-07T06:48:18;100232.84;;;17.80;47.94
73297;BME280;61524;50.938;11.396;2022-08-07T06:50:44;100253.03;;;18.61;46.77
73297;BME280;61524;50.938;11.396;2022-08-07T06:53:12;100240.81;;;18.18;46.51
73297;BME280;61524;50.938;11.396;2022-08-07T06:55:39;100257.13;;;18.58;46.31
73297;BME280;61524;50.938;11.396;2022-08-07T06:58:07;100277.44;;;19.37;44.49
73297;BME280;61524;50.938;11.396;2022-08-07T07:00:36;100240.63;;;18.75;45.75
73297;BME280;61524;50.938;11.396;2022-08-07T07:03:02;100253.31;;;19.15;45.13
73297;BME280;61524;50.938;11.396;2022-08-07T07:05:28;100250.88;;;19.19;44.79
73297;BME280;61524;50.938;11.396;2022-08-07T07:07:55;100237.34;;;18.63;46.95
73297;BME280;61524;50.938;11.396;2022-08-07T07:10:29;100262.00;;;19.18;45.63
73297;BME280;61524;50.938;11.396;2022-08-07T07:13:00;100253.25;;;19.61;44.50
73297;BME280;61524;50.938;11.396;2022-08-07T07:15:33;100236.47;;;19.44;44.36
73297;BME280;61524;50.938;11.396;2022-08-07T07:20:40;100272.41;;;21.13;41.67
73297;BME280;61524;50.938;11.396;2022-08-07T07:23:06;100275.53;;;21.31;41.31
73297;BME280;61524;50.938;11.396;2022-08-07T07:25:33;100274.84;;;21.44;40.60
73297;BME280;61524;50.938;11.396;2022-08-07T07:28:06;100267.69;;;21.53;40.33
73297;BME280;61524;50.938;11.396;2022-08-07T07:30:39;100251.28;;;21.05;40.28
73297;BME280;61524;50.938;11.396;2022-08-07T07:33:05;100254.31;;;21.57;39.75
73297;BME280;61524;50.938;11.396;2022-08-07T07:35:33;100259.16;;;21.36;39.96
73297;BME280;61524;50.938;11.396;2022-08-07T07:38:00;100254.22;;;21.43;40.56
73297;BME280;61524;50.938;11.396;2022-08-07T07:40:28;100277.84;;;22.33;38.66
73297;BME280;61524;50.938;11.396;2022-08-07T07:42:56;100261.22;;;22.53;38.20
73297;BME280;61524;50.938;11.396;2022-08-07T07:45:25;100262.66;;;22.65;37.40
73297;BME280;61524;50.938;11.396;2022-08-07T07:47:52;100245.69;;;22.35;37.50
73297;BME280;61524;50.938;11.396;2022-08-07T07:50:22;100247.44;;;22.07;37.46
73297;BME280;61524;50.938;11.396;2022-08-07T07:52:50;100263.16;;;23.04;36.19
73297;BME280;61524;50.938;11.396;2022-08-07T07:55:18;100235.91;;;22.34;37.09
73297;BME280;61524;50.938;11.396;2022-08-07T07:57:46;100212.75;;;21.51;38.85
73297;BME280;61524;50.938;11.396;2022-08-07T08:00:14;100207.22;;;21.37;38.61
73297;BME280;61524;50.938;11.396;2022-08-07T08:02:40;100193.06;;;20.82;39.81
73297;BME280;61524;50.938;11.396;2022-08-07T08:05:09;100196.38;;;20.45;40.92
73297;BME280;61524;50.938;11.396;2022-08-07T08:07:37;100194.47;;;20.80;40.07
73297;BME280;61524;50.938;11.396;2022-08-07T08:10:05;100208.22;;;21.17;40.69
73297;BME280;61524;50.938;11.396;2022-08-07T08:12:32;100198.97;;;21.18;39.94
73297;BME280;61524;50.938;11.396;2022-08-07T08:14:59;100183.00;;;20.54;38.62
73297;BME280;61524;50.938;11.396;2022-08-07T08:17:25;100194.13;;;21.15;39.11
73297;BME280;61524;50.938;11.396;2022-08-07T08:19:56;100205.25;;;21.43;38.89
73297;BME280;61524;50.938;11.396;2022-08-07T08:22:24;100218.13;;;21.99;37.86
73297;BME280;61524;50.938;11.396;2022-08-07T08:25:09;100218.38;;;22.21;37.74
73297;BME280;61524;50.938;11.396;2022-08-07T08:27:55;100220.59;;;22.19;37.70
73297;BME280;61524;50.938;11.396;2022-08-07T08:30:22;100217.13;;;22.33;34.81
73297;BME280;61524;50.938;11.396;2022-08-07T08:32:52;100223.75;;;22.26;34.17
73297;BME280;61524;50.938;11.396;2022-08-07T08:35:22;100214.06;;;22.20;34.82
73297;BME280;61524;50.938;11.396;2022-08-07T08:37:50;100201.28;;;21.78;37.08
73297;BME280;61524;50.938;11.396;2022-08-07T08:40:30;100195.41;;;22.09;36.94
73297;BME280;61524;50.938;11.396;2022-08-07T08:43:02;100216.19;;;22.23;35.40
73297;BME280;61524;50.938;11.396;2022-08-07T08:45:51;100206.31;;;22.27;32.94
73297;BME280;61524;50.938;11.396;2022-08-07T08:48:31;100195.94;;;22.30;31.51
73297;BME280;61524;50.938;11.396;2022-08-07T08:51:04;100188.94;;;21.86;32.52
73297;BME280;61524;50.938;11.396;2022-08-07T08:53:55;100193.88;;;22.21;32.80
73297;BME280;61524;50.938;11.396;2022-08-07T08:56:42;100197.66;;;22.58;33.83
73297;BME280;61524;50.938;11.396;2022-08-07T09:02:02;100197.41;;;22.73;31.29
73297;BME280;61524;50.938;11.396;2022-08-07T09:07:13;100188.91;;;22.61;33.04
73297;BME280;61524;50.938;11.396;2022-08-07T09:10:06;100175.34;;;22.23;31.65
73297;BME280;61524;50.938;11.396;2022-08-07T09:17:45;100190.44;;;22.67;33.68
73297;BME280;61524;50.938;11.396;2022-08-07T09:23:17;100152.41;;;22.11;32.02
73297;BME280;61524;50.938;11.396;2022-08-07T09:28:38;100164.94;;;22.44;31.47
73297;BME280;61524;50.938;11.396;2022-08-07T09:31:14;100167.84;;;22.80;31.21
73297;BME280;61524;50.938;11.396;2022-08-07T09:39:02;100144.53;;;22.28;31.05
73297;BME280;61524;50.938;11.396;2022-08-07T09:41:33;100152.22;;;22.72;30.76
73297;BME280;61524;50.938;11.396;2022-08-07T09:46:40;100146.22;;;22.57;31.37
73297;BME280;61524;50.938;11.396;2022-08-07T09:58:03;100124.72;;;22.55;31.83
73297;BME280;61524;50.938;11.396;2022-08-07T10:09:17;100106.53;;;22.97;31.98
73297;BME280;61524;50.938;11.396;2022-08-07T10:11:54;100096.22;;;23.21;30.74
73297;BME280;61524;50.938;11.396;2022-08-07T10:17:17;100094.09;;;23.18;30.04
73297;BME280;61524;50.938;11.396;2022-08-07T10:22:54;100080.97;;;23.20;30.82
73297;BME280;61524;50.938;11.396;2022-08-07T10:28:06;100042.97;;;22.09;31.72
73297;BME280;61524;50.938;11.396;2022-08-07T10:33:37;100055.66;;;22.32;31.68
73297;BME280;61524;50.938;11.396;2022-08-07T10:38:58;100060.13;;;22.42;31.91
73297;BME280;61524;50.938;11.396;2022-08-07T10:41:51;100049.75;;;22.58;31.42
73297;BME280;61524;50.938;11.396;2022-08-07T10:44:31;100041.69;;;22.66;31.35
73297;BME280;61524;50.938;11.396;2022-08-07T10:47:23;100032.41;;;22.40;31.91
73297;BME280;61524;50.938;11.396;2022-08-07T10:50:07;100031.50;;;22.58;31.52
73297;BME280;61524;50.938;11.396;2022-08-07T10:55:32;100065.97;;;22.35;31.87
73297;BME280;61524;50.938;11.396;2022-08-07T11:00:40;100028.97;;;22.75;31.34
73297;BME280;61524;50.938;11.396;2022-08-07T11:03:16;100042.13;;;23.01;31.77
73297;BME280;61524;50.938;11.396;2022-08-07T11:08:37;100034.22;;;22.72;31.16
73297;BME280;61524;50.938;11.396;2022-08-07T11:13:38;100037.56;;;23.10;31.03
73297;BME280;61524;50.938;11.396;2022-08-07T11:16:21;100028.16;;;23.02;31.27
73297;BME280;61524;50.938;11.396;2022-08-07T11:19:50;100032.13;;;23.10;31.22
73297;BME280;61524;50.938;11.396;2022-08-07T11:29:58;100009.19;;;22.97;30.78
73297;BME280;61524;50.938;11.396;2022-08-07T11:35:17;100005.50;;;22.93;30.54
73297;BME280;61524;50.938;11.396;2022-08-07T11:40:59;99980.22;;;22.33;31.10
73297;BME280;61524;50.938;11.396;2022-08-07T11:43:34;99987.81;;;22.91;31.42
73297;BME280;61524;50.938;11.396;2022-08-07T11:54:18;99977.91;;;22.95;30.33
73297;BME280;61524;50.938;11.396;2022-08-07T11:57:18;99972.94;;;22.97;30.80
73297;BME280;61524;50.938;11.396;2022-08-07T12:02:54;99977.72;;;22.91;30.25
73297;BME280;61524;50.938;11.396;2022-08-07T12:08:24;99961.38;;;22.77;30.86
73297;BME280;61524;50.938;11.396;2022-08-07T12:10:55;99962.75;;;22.75;30.72
73297;BME280;61524;50.938;11.396;2022-08-07T12:13:42;99949.34;;;22.65;30.51
73297;BME280;61524;50.938;11.396;2022-08-07T12:16:15;99966.81;;;22.91;29.96
73297;BME280;61524;50.938;11.396;2022-08-07T12:19:05;99971.22;;;23.01;29.94
73297;BME280;61524;50.938;11.396;2022-08-07T12:27:36;99957.34;;;22.89;30.51
73297;BME280;61524;50.938;11.396;2022-08-07T12:30:07;99961.00;;;23.20;30.04
73297;BME280;61524;50.938;11.396;2022-08-07T12:35:01;99960.38;;;23.46;29.87
73297;BME280;61524;50.938;11.396;2022-08-07T12:37:27;99948.78;;;23.40;29.68
73297;BME280;61524;50.938;11.396;2022-08-07T12:39:53;99947.75;;;23.14;30.19
73297;BME280;61524;50.938;11.396;2022-08-07T12:42:24;99935.41;;;22.94;29.83
73297;BME280;61524;50.938;11.396;2022-08-07T12:44:50;99917.47;;;22.65;30.40
73297;BME280;61524;50.938;11.396;2022-08-07T12:47:24;99925.38;;;23.03;30.57
73297;BME280;61524;50.938;11.396;2022-08-07T12:55:20;99921.34;;;23.14;29.55
73297;BME280;61524;50.938;11.396;2022-08-07T12:57:47;99924.91;;;23.01;29.89
73297;BME280;61524;50.938;11.396;2022-08-07T13:00:13;99929.31;;;23.11;29.76
73297;BME280;61524;50.938;11.396;2022-08-07T13:03:22;99911.25;;;23.01;29.93
73297;BME280;61524;50.938;11.396;2022-08-07T13:08:50;99924.06;;;23.37;29.06
73297;BME280;61524;50.938;11.396;2022-08-07T13:11:40;99911.56;;;23.36;29.85
73297;BME280;61524;50.938;11.396;2022-08-07T13:14:21;99918.97;;;23.44;28.83
73297;BME280;61524;50.938;11.396;2022-08-07T13:17:08;99914.44;;;23.17;29.44
73297;BME280;61524;50.938;11.396;2022-08-07T13:20:02;99894.09;;;23.00;29.01
73297;BME280;61524;50.938;11.396;2022-08-07T13:22:32;99914.00;;;23.23;29.14
73297;BME280;61524;50.938;11.396;2022-08-07T13:25:05;99912.28;;;23.27;29.01
73297;BME280;61524;50.938;11.396;2022-08-07T13:27:39;99903.38;;;23.36;28.74
73297;BME280;61524;50.938;11.396;2022-08-07T13:30:08;99907.75;;;23.23;28.85
73297;BME280;61524;50.938;11.396;2022-08-07T13:32:49;99898.41;;;23.38;28.96
73297;BME280;61524;50.938;11.396;2022-08-07T13:35:40;99891.38;;;23.00;28.75
73297;BME280;61524;50.938;11.396;2022-08-07T13:41:24;99884.34;;;23.22;28.71
73297;BME280;61524;50.938;11.396;2022-08-07T13:43:53;99877.44;;;23.24;29.09
73297;BME280;61524;50.938;11.396;2022-08-07T13:46:21;99875.91;;;23.10;28.84
73297;BME280;61524;50.938;11.396;2022-08-07T13:48:54;99867.03;;;23.04;28.89
73297;BME280;61524;50.938;11.396;2022-08-07T13:51:24;99882.03;;;23.15;28.39
73297;BME280;61524;50.938;11.396;2022-08-07T13:53:56;99875.66;;;23.20;28.88
73297;BME280;61524;50.938;11.396;2022-08-07T13:56:24;99879.13;;;23.12;28.43
73297;BME280;61524;50.938;11.396;2022-08-07T13:58:52;99865.38;;;23.17;28.39
73297;BME280;61524;50.938;11.396;2022-08-07T14:02:30;99855.03;;;23.05;28.24
73297;BME280;61524;50.938;11.396;2022-08-07T14:04:50;99861.84;;;23.16;28.59
73297;BME280;61524;50.938;11.396;2022-08-07T14:10:02;99857.78;;;23.14;28.27
73297;BME280;61524;50.938;11.396;2022-08-07T14:15:04;99857.63;;;23.33;27.65
73297;BME280;61524;50.938;11.396;2022-08-07T14:17:34;99848.06;;;23.21;27.66
73297;BME280;61524;50.938;11.396;2022-08-07T14:20:11;99845.72;;;23.28;27.71
73297;BME280;61524;50.938;11.396;2022-08-07T14:22:41;99839.56;;;23.23;27.60
73297;BME280;61524;50.938;11.396;2022-08-07T14:25:12;99848.53;;;23.15;28.00
73297;BME280;61524;50.938;11.396;2022-08-07T14:27:49;99836.13;;;23.09;27.89
73297;BME280;61524;50.938;11.396;2022-08-07T14:30:16;99822.91;;;23.02;27.66
73297;BME280;61524;50.938;11.396;2022-08-07T14:32:57;99848.88;;;22.99;28.62
73297;BME280;61524;50.938;11.396;2022-08-07T14:35:35;99835.81;;;23.10;28.60
73297;BME280;61524;50.938;11.396;2022-08-07T14:38:02;99841.38;;;23.27;27.93
73297;BME280;61524;50.938;11.396;2022-08-07T14:40:28;99829.00;;;23.21;27.98
73297;BME280;61524;50.938;11.396;2022-08-07T14:43:01;99843.50;;;23.30;28.08
73297;BME280;61524;50.938;11.396;2022-08-07T14:45:44;99832.41;;;23.27;28.20
73297;BME280;61524;50.938;11.396;2022-08-07T14:48:12;99829.47;;;23.23;27.59
73297;BME280;61524;50.938;11.396;2022-08-07T14:50:47;99831.63;;;23.35;27.44
73297;BME280;61524;50.938;11.396;2022-08-07T14:53:15;99834.63;;;23.25;27.10
73297;BME280;61524;50.938;11.396;2022-08-07T14:55:42;99830.03;;;23.12;27.26
73297;BME280;61524;50.938;11.396;2022-08-07T14:58:10;99815.72;;;23.06;27.60
73297;BME280;61524;50.938;11.396;2022-08-07T15:00:38;99818.22;;;23.16;27.38
73297;BME280;61524;50.938;11.396;2022-08-07T15:03:07;99813.38;;;23.36;27.85
73297;BME280;61524;50.938;11.396;2022-08-07T15:05:34;99816.75;;;23.41;27.52
73297;BME280;61524;50.938;11.396;2022-08-07T15:08:03;99825.25;;;23.40;27.40